createdAt,value
2023-02-02T00:00:49.569Z,9.70
2023-02-02T00:03:17.905Z,11.90
2023-02-02T00:05:49.294Z,12.27
2023-02-02T00:08:16.596Z,11.27
2023-02-02T00:10:44.829Z,12.80
2023-02-02T00:13:12.025Z,12.70
2023-02-02T00:15:38.998Z,20.27
2023-02-02T00:18:06.845Z,12.83
2023-02-02T00:20:35.165Z,14.47
2023-02-02T00:23:02.735Z,15.07
2023-02-02T00:25:30.235Z,15.60
2023-02-02T00:27:57.197Z,16.83
2023-02-02T00:30:24.331Z,15.00
2023-02-02T00:32:53.007Z,16.67
2023-02-02T00:35:20.327Z,17.80
2023-02-02T00:37:48.575Z,14.93
2023-02-02T00:40:15.690Z,11.73
2023-02-02T00:42:43.413Z,8.23
2023-02-02T00:45:17.257Z,11.33
2023-02-02T00:47:47.174Z,14.63
2023-02-02T00:50:17.723Z,12.40
2023-02-02T00:52:45.377Z,12.03
2023-02-02T00:55:15.603Z,14.13
2023-02-02T00:57:44.173Z,11.27
2023-02-02T01:00:16.043Z,13.83
2023-02-02T01:02:43.355Z,14.90
2023-02-02T01:05:12.045Z,17.20
2023-02-02T01:07:39.229Z,14.00
2023-02-02T01:10:10.774Z,15.80
2023-02-02T01:12:38.943Z,8.80
2023-02-02T01:15:07.532Z,13.07
2023-02-02T01:17:34.637Z,12.63
2023-02-02T01:20:01.627Z,12.97
2023-02-02T01:22:28.536Z,12.80
2023-02-02T01:24:55.416Z,13.93
2023-02-02T01:27:22.296Z,9.63
2023-02-02T01:29:50.465Z,12.17
2023-02-02T01:32:17.448Z,14.23
2023-02-02T01:34:44.411Z,11.50
2023-02-02T01:37:11.564Z,12.37
2023-02-02T01:39:38.414Z,8.93
2023-02-02T01:42:14.067Z,9.73
2023-02-02T01:45:12.939Z,14.90
2023-02-02T01:47:47.381Z,10.03
2023-02-02T01:50:17.526Z,8.70
2023-02-02T01:52:49.859Z,12.27
2023-02-02T01:55:23.012Z,12.43
2023-02-02T01:57:56.763Z,14.20
2023-02-02T02:00:27.542Z,11.20
2023-02-02T02:02:59.866Z,10.00
2023-02-02T02:05:31.947Z,17.20
2023-02-02T02:08:11.888Z,13.97
2023-02-02T02:10:38.985Z,10.97
2023-02-02T02:13:06.880Z,15.43
2023-02-02T02:16:02.400Z,12.93
2023-02-02T02:18:44.281Z,10.43
2023-02-02T02:21:53.619Z,13.70
2023-02-02T02:25:44.005Z,12.50
2023-02-02T02:29:03.464Z,12.80
2023-02-02T02:32:04.612Z,15.70
2023-02-02T02:34:48.388Z,11.37
2023-02-02T02:37:27.525Z,13.47
2023-02-02T02:40:02.525Z,15.13
2023-02-02T02:42:36.339Z,11.63
2023-02-02T02:45:07.500Z,13.07
2023-02-02T02:47:37.298Z,16.07
2023-02-02T02:50:05.917Z,17.70
2023-02-02T02:52:34.640Z,17.07
2023-02-02T02:55:05.407Z,11.17
2023-02-02T02:57:56.650Z,11.77
2023-02-02T03:00:46.221Z,10.63
2023-02-02T03:03:33.357Z,11.77
2023-02-02T03:06:12.387Z,12.30
2023-02-02T03:08:43.921Z,15.10
2023-02-02T03:11:14.110Z,13.67
2023-02-02T03:13:42.830Z,11.77
2023-02-02T03:16:10.315Z,13.17
2023-02-02T03:18:39.430Z,16.40
2023-02-02T03:21:06.751Z,10.30
2023-02-02T03:23:34.377Z,13.60
2023-02-02T03:26:01.813Z,9.77
2023-02-02T03:28:29.421Z,13.70
2023-02-02T03:31:01.178Z,13.03
2023-02-02T03:33:28.514Z,13.67
2023-02-02T03:35:56.665Z,12.93
2023-02-02T03:38:23.560Z,12.80
2023-02-02T03:40:51.381Z,14.93
2023-02-02T03:43:21.450Z,15.43
2023-02-02T03:45:48.607Z,15.53
2023-02-02T03:48:15.497Z,9.80
2023-02-02T03:50:42.347Z,16.93
2023-02-02T03:53:10.558Z,15.90
2023-02-02T03:55:40.394Z,12.80
2023-02-02T03:58:07.501Z,16.97
2023-02-02T04:00:34.550Z,10.87
2023-02-02T04:03:01.566Z,15.57
2023-02-02T04:05:28.602Z,11.40
2023-02-02T04:07:55.611Z,13.33
2023-02-02T04:10:23.829Z,16.03
2023-02-02T04:12:50.936Z,14.53
2023-02-02T04:15:18.240Z,13.97
2023-02-02T04:17:45.147Z,13.93
2023-02-02T04:20:12.533Z,13.67
2023-02-02T04:22:39.432Z,13.90
2023-02-02T04:25:07.604Z,13.67
2023-02-02T04:27:35.915Z,15.23
2023-02-02T04:30:03.381Z,14.30
2023-02-02T04:32:30.450Z,14.93
2023-02-02T04:34:57.339Z,16.63
2023-02-02T04:37:24.424Z,17.90
2023-02-02T04:39:51.295Z,18.37
2023-02-02T04:42:18.241Z,16.37
2023-02-02T04:44:46.522Z,16.77
2023-02-02T04:47:13.453Z,22.07
2023-02-02T04:49:40.351Z,19.27
2023-02-02T04:52:07.380Z,17.10
2023-02-02T04:54:34.504Z,15.40
2023-02-02T04:57:01.429Z,21.90
2023-02-02T04:59:29.936Z,15.80
2023-02-02T05:02:00.038Z,14.67
2023-02-02T05:04:27.417Z,14.10
2023-02-02T05:06:54.433Z,15.00
2023-02-02T05:09:21.353Z,14.87
2023-02-02T05:11:48.260Z,14.43
2023-02-02T05:14:18.308Z,15.67
2023-02-02T05:16:45.450Z,13.90
2023-02-02T05:19:16.697Z,16.23
2023-02-02T05:21:44.719Z,15.63
2023-02-02T05:24:12.474Z,23.13
2023-02-02T05:26:39.562Z,17.70
2023-02-02T05:29:07.500Z,17.33
2023-02-02T05:31:34.576Z,18.47
2023-02-02T05:34:01.820Z,18.33
2023-02-02T05:36:30.082Z,16.70
2023-02-02T05:38:56.987Z,15.97
2023-02-02T05:41:23.966Z,15.03
2023-02-02T05:43:50.800Z,15.93
2023-02-02T05:46:17.699Z,14.17
2023-02-02T05:48:44.657Z,23.77
2023-02-02T05:51:16.929Z,12.77
2023-02-02T05:53:45.356Z,11.23
2023-02-02T05:56:13.094Z,20.57
2023-02-02T05:58:40.017Z,16.20
2023-02-02T06:01:07.090Z,13.50
2023-02-02T06:03:34.354Z,12.33
2023-02-02T06:06:01.556Z,16.53
2023-02-02T06:08:28.445Z,24.07
2023-02-02T06:10:56.621Z,15.57
2023-02-02T06:13:23.550Z,18.27
2023-02-02T06:15:50.423Z,18.57
2023-02-02T06:18:17.436Z,11.97
2023-02-02T06:20:46.127Z,17.00
2023-02-02T06:23:13.033Z,16.47
2023-02-02T06:25:39.927Z,28.30
2023-02-02T06:28:09.379Z,14.83
2023-02-02T06:30:36.291Z,16.07
2023-02-02T06:33:03.267Z,22.40
2023-02-02T06:35:30.279Z,16.93
2023-02-02T06:37:58.140Z,14.97
2023-02-02T06:40:25.167Z,17.97
2023-02-02T06:42:57.145Z,20.50
2023-02-02T06:45:26.326Z,11.33
2023-02-02T06:47:54.054Z,21.03
2023-02-02T06:50:20.961Z,22.37
2023-02-02T06:52:48.770Z,18.93
2023-02-02T06:55:16.826Z,15.17
2023-02-02T06:57:43.794Z,16.10
2023-02-02T07:00:13.276Z,16.67
2023-02-02T07:02:45.706Z,14.80
2023-02-02T07:05:12.622Z,24.73
2023-02-02T07:07:39.533Z,15.90
2023-02-02T07:10:07.666Z,18.13
2023-02-02T07:12:34.546Z,20.70
2023-02-02T07:15:01.577Z,15.90
2023-02-02T07:17:28.755Z,12.87
2023-02-02T07:19:56.974Z,22.70
2023-02-02T07:22:23.981Z,15.33
2023-02-02T07:24:50.872Z,13.03
2023-02-02T07:27:17.828Z,17.70
2023-02-02T07:29:45.351Z,15.07
2023-02-02T07:32:13.317Z,13.33
2023-02-02T07:34:42.280Z,17.93
2023-02-02T07:37:10.942Z,12.17
2023-02-02T07:39:40.077Z,19.87
2023-02-02T07:42:08.520Z,17.83
2023-02-02T07:44:36.449Z,17.90
2023-02-02T07:47:03.347Z,19.80
2023-02-02T07:49:31.458Z,16.77
2023-02-02T07:51:58.405Z,14.57
2023-02-02T07:54:26.631Z,17.03
2023-02-02T07:56:53.553Z,18.03
2023-02-02T07:59:20.852Z,19.07
2023-02-02T08:01:47.885Z,14.73
2023-02-02T08:04:15.593Z,16.87
2023-02-02T08:06:42.537Z,14.57
2023-02-02T08:09:10.190Z,15.40
2023-02-02T08:11:39.051Z,15.07
2023-02-02T08:14:06.885Z,18.40
2023-02-02T08:16:34.614Z,15.70
2023-02-02T08:19:01.901Z,14.53
2023-02-02T08:21:28.945Z,17.10
2023-02-02T08:23:56.439Z,17.30
2023-02-02T08:26:26.149Z,16.00
2023-02-02T08:28:58.072Z,13.73
2023-02-02T08:31:29.227Z,19.07
2023-02-02T08:33:58.462Z,15.70
2023-02-02T08:36:28.360Z,12.37
2023-02-02T08:38:55.699Z,10.90
2023-02-02T08:41:25.389Z,18.73
2023-02-02T08:43:53.721Z,19.97
2023-02-02T08:46:21.916Z,14.50
2023-02-02T08:48:49.450Z,14.27
2023-02-02T08:51:19.693Z,16.23
2023-02-02T08:53:47.872Z,19.10
2023-02-02T08:56:17.977Z,11.50
2023-02-02T08:58:46.650Z,15.50
2023-02-02T09:01:18.379Z,15.87
2023-02-02T09:03:45.828Z,18.10
2023-02-02T09:06:15.810Z,15.20
2023-02-02T09:08:43.615Z,15.77
2023-02-02T09:11:14.032Z,13.17
2023-02-02T09:13:45.409Z,13.07
2023-02-02T09:16:16.451Z,17.40
2023-02-02T09:18:44.809Z,16.80
2023-02-02T09:21:14.943Z,18.67
2023-02-02T09:23:44.401Z,26.63
2023-02-02T09:26:14.392Z,15.70
2023-02-02T09:28:43.937Z,15.83
2023-02-02T09:31:11.676Z,13.30
2023-02-02T09:33:40.999Z,19.20
2023-02-02T09:36:11.369Z,22.37
2023-02-02T09:38:40.233Z,15.73
2023-02-02T09:41:42.235Z,16.37
2023-02-02T09:44:21.757Z,15.20
2023-02-02T09:47:00.991Z,18.23
2023-02-02T09:49:41.311Z,12.03
2023-02-02T09:52:16.230Z,13.73
2023-02-02T09:54:48.286Z,12.70
2023-02-02T09:57:24.669Z,14.83
2023-02-02T09:59:54.375Z,17.60
2023-02-02T10:02:27.212Z,15.67
2023-02-02T10:05:11.818Z,11.27
2023-02-02T10:07:45.743Z,10.90
2023-02-02T10:10:21.419Z,15.57
2023-02-02T10:12:56.238Z,12.87
2023-02-02T10:15:37.173Z,12.17
2023-02-02T10:18:18.338Z,14.97
2023-02-02T10:20:56.225Z,12.20
2023-02-02T10:23:29.037Z,9.87
2023-02-02T10:26:04.325Z,17.40
2023-02-02T10:28:44.404Z,13.37
2023-02-02T10:31:29.659Z,11.13
2023-02-02T10:34:09.777Z,10.60
2023-02-02T10:37:07.832Z,14.43
2023-02-02T10:39:54.669Z,11.50
2023-02-02T10:42:33.971Z,11.50
2023-02-02T10:45:10.784Z,14.20
2023-02-02T10:47:38.492Z,14.40
2023-02-02T10:50:18.782Z,12.97
2023-02-02T10:52:53.289Z,13.97
2023-02-02T10:55:32.583Z,13.40
2023-02-02T10:58:15.526Z,10.30
2023-02-02T11:00:51.321Z,12.10
2023-02-02T11:03:22.860Z,11.97
2023-02-02T11:06:08.798Z,10.33
2023-02-02T11:08:42.530Z,22.00
2023-02-02T11:11:13.349Z,16.73
2023-02-02T11:13:48.225Z,14.33
2023-02-02T11:16:32.674Z,13.77
2023-02-02T11:19:23.868Z,8.97
2023-02-02T11:21:54.233Z,12.13
2023-02-02T11:24:27.598Z,12.20
2023-02-02T11:27:00.096Z,14.87
2023-02-02T11:29:31.326Z,11.67
2023-02-02T11:31:58.816Z,24.30
2023-02-02T11:34:28.360Z,12.70
2023-02-02T11:37:13.902Z,13.63
2023-02-02T11:39:44.044Z,12.07
2023-02-02T11:42:16.678Z,17.07
2023-02-02T11:44:48.578Z,15.53
2023-02-02T11:47:24.691Z,12.63
2023-02-02T11:49:55.781Z,14.80
2023-02-02T11:52:32.310Z,12.60
2023-02-02T11:55:14.539Z,7.80
2023-02-02T11:58:17.243Z,20.50
2023-02-02T12:00:47.835Z,17.30
2023-02-02T12:03:26.937Z,12.10
2023-02-02T12:05:54.243Z,10.93
2023-02-02T12:08:22.140Z,13.87
2023-02-02T12:10:59.333Z,16.03
2023-02-02T12:14:02.852Z,10.47
2023-02-02T12:16:53.689Z,21.17
2023-02-02T12:19:47.474Z,13.50
2023-02-02T12:22:35.578Z,17.60
2023-02-02T12:25:24.285Z,17.57
2023-02-02T12:28:05.584Z,14.47
2023-02-02T12:30:41.432Z,11.10
2023-02-02T12:33:30.541Z,14.87
2023-02-02T12:36:26.112Z,13.67
2023-02-02T12:39:23.081Z,19.93
2023-02-02T12:42:23.606Z,14.83
2023-02-02T12:45:19.575Z,17.90
2023-02-02T12:48:01.853Z,17.47
2023-02-02T12:50:39.624Z,15.87
2023-02-02T12:53:39.685Z,9.50
2023-02-02T12:56:22.768Z,20.40
2023-02-02T12:59:04.653Z,11.90
2023-02-02T13:01:59.990Z,14.70
2023-02-02T13:04:51.953Z,15.80
2023-02-02T13:07:38.390Z,15.67
2023-02-02T13:10:17.333Z,16.20
2023-02-02T13:12:53.721Z,13.17
2023-02-02T13:15:24.763Z,11.30
2023-02-02T13:17:57.073Z,18.20
2023-02-02T13:20:37.215Z,9.13
2023-02-02T13:23:11.236Z,11.77
2023-02-02T13:25:47.015Z,16.40
2023-02-02T13:28:27.989Z,14.03
2023-02-02T13:31:01.313Z,9.27
2023-02-02T13:33:35.945Z,11.87
2023-02-02T13:36:14.876Z,8.57
2023-02-02T13:38:42.489Z,9.60
2023-02-02T13:41:16.812Z,15.87
2023-02-02T13:43:54.400Z,13.83
2023-02-02T13:46:33.274Z,12.93
2023-02-02T13:49:13.257Z,10.20
2023-02-02T13:51:53.616Z,10.00
2023-02-02T13:55:16.002Z,9.63
2023-02-02T13:58:26.824Z,11.70
2023-02-02T14:01:01.771Z,10.87
2023-02-02T14:03:40.319Z,12.63
2023-02-02T14:06:18.919Z,9.93
2023-02-02T14:08:52.665Z,14.70
2023-02-02T14:11:27.253Z,10.03
2023-02-02T14:14:18.243Z,11.83
2023-02-02T14:16:50.221Z,8.00
2023-02-02T14:19:55.362Z,12.43
2023-02-02T14:22:45.531Z,9.57
2023-02-02T14:25:51.522Z,12.53
2023-02-02T14:28:42.945Z,7.77
2023-02-02T14:31:53.147Z,8.97
2023-02-02T14:34:34.933Z,12.10
2023-02-02T14:37:47.324Z,9.27
2023-02-02T14:40:39.078Z,8.83
2023-02-02T14:43:40.573Z,7.97
2023-02-02T14:46:34.834Z,6.23
2023-02-02T14:49:24.063Z,9.87
2023-02-02T14:51:57.946Z,11.73
2023-02-02T14:54:36.045Z,8.07
2023-02-02T14:57:21.172Z,13.47
2023-02-02T14:59:49.656Z,8.90
2023-02-02T15:02:21.916Z,12.77
2023-02-02T15:04:49.626Z,8.87
2023-02-02T15:07:51.299Z,7.40
2023-02-02T15:11:02.035Z,9.43
2023-02-02T15:13:44.632Z,10.83
2023-02-02T15:16:31.945Z,7.53
2023-02-02T15:19:37.702Z,8.73
2023-02-02T15:22:30.275Z,6.73
2023-02-02T15:25:05.080Z,8.30
2023-02-02T15:27:51.380Z,6.83
2023-02-02T15:30:27.041Z,7.97
2023-02-02T15:32:56.064Z,7.30
2023-02-02T15:35:30.096Z,10.80
2023-02-02T15:38:01.334Z,6.93
2023-02-02T15:40:32.169Z,7.17
2023-02-02T15:43:06.131Z,15.20
2023-02-02T15:45:43.532Z,7.07
2023-02-02T15:48:22.141Z,5.43
2023-02-02T15:50:56.764Z,3.33
2023-02-02T15:53:27.674Z,10.67
2023-02-02T15:55:57.383Z,8.60
2023-02-02T15:58:32.300Z,10.00
2023-02-02T16:01:04.233Z,9.80
2023-02-02T16:03:41.915Z,5.53
2023-02-02T16:06:09.852Z,6.77
2023-02-02T16:08:39.697Z,8.97
2023-02-02T16:11:11.983Z,13.30
2023-02-02T16:13:43.880Z,9.53
2023-02-02T16:16:24.482Z,6.43
2023-02-02T16:19:15.588Z,10.07
2023-02-02T16:21:50.925Z,16.20
2023-02-02T16:24:24.263Z,10.47
2023-02-02T16:26:54.280Z,11.57
2023-02-02T16:29:24.388Z,9.93
2023-02-02T16:31:51.592Z,5.60
2023-02-02T16:34:47.033Z,8.73
2023-02-02T16:37:17.016Z,9.10
2023-02-02T16:39:45.654Z,8.93
2023-02-02T16:42:25.536Z,7.60
2023-02-02T16:44:53.159Z,9.77
2023-02-02T16:47:34.761Z,6.17
2023-02-02T16:50:26.655Z,8.93
2023-02-02T16:52:59.223Z,8.27
2023-02-02T16:55:48.788Z,10.80
2023-02-02T16:58:27.202Z,4.57
2023-02-02T17:01:14.992Z,5.23
2023-02-02T17:03:53.105Z,6.47
2023-02-02T17:06:51.737Z,5.27
2023-02-02T17:09:53.591Z,9.67
2023-02-02T17:12:34.465Z,6.97
2023-02-02T17:15:34.679Z,6.10
2023-02-02T17:18:03.344Z,6.77
2023-02-02T17:20:30.808Z,6.50
2023-02-02T17:23:28.862Z,7.03
2023-02-02T17:25:56.491Z,6.10
2023-02-02T17:28:26.158Z,4.57
2023-02-02T17:31:00.907Z,8.87
2023-02-02T17:33:28.667Z,5.97
2023-02-02T17:35:56.626Z,4.30
2023-02-02T17:38:25.799Z,7.23
2023-02-02T17:44:40.322Z,3.83
2023-02-02T17:49:14.800Z,8.53
2023-02-02T17:51:52.318Z,7.43
2023-02-02T17:54:46.998Z,6.67
2023-02-02T17:57:15.324Z,8.87
2023-02-02T17:59:42.177Z,4.33
2023-02-02T18:02:14.640Z,8.33
2023-02-02T18:04:45.433Z,6.00
2023-02-02T18:07:12.588Z,8.87
2023-02-02T18:09:39.424Z,10.97
2023-02-02T18:12:06.828Z,7.63
2023-02-02T18:14:33.658Z,10.37
2023-02-02T18:17:00.544Z,6.53
2023-02-02T18:19:27.716Z,8.27
2023-02-02T18:21:55.879Z,11.10
2023-02-02T18:24:23.024Z,7.07
2023-02-02T18:26:49.960Z,3.83
2023-02-02T18:29:16.845Z,8.03
2023-02-02T18:31:43.811Z,8.87
2023-02-02T18:34:10.852Z,8.70
2023-02-02T18:36:37.741Z,5.63
2023-02-02T18:39:06.154Z,7.87
2023-02-02T18:41:33.078Z,5.27
2023-02-02T18:44:00.013Z,7.20
2023-02-02T18:46:27.023Z,7.00
2023-02-02T18:48:55.574Z,7.43
2023-02-02T18:51:22.442Z,6.27
2023-02-02T18:53:49.705Z,6.63
2023-02-02T18:56:17.948Z,8.57
2023-02-02T18:58:44.850Z,7.07
2023-02-02T19:01:15.307Z,8.23
2023-02-02T19:03:47.002Z,5.83
2023-02-02T19:06:32.196Z,7.07
2023-02-02T19:08:59.104Z,6.50
2023-02-02T19:11:39.121Z,5.70
2023-02-02T19:14:13.586Z,5.80
2023-02-02T19:16:42.086Z,8.23
2023-02-02T19:19:22.892Z,7.90
2023-02-02T19:21:54.556Z,11.27
2023-02-02T19:24:21.769Z,9.07
2023-02-02T19:26:50.907Z,6.80
2023-02-02T19:29:21.332Z,9.80
2023-02-02T19:31:52.579Z,7.47
2023-02-02T19:34:22.226Z,7.03
2023-02-02T19:36:51.064Z,8.00
2023-02-02T19:39:26.902Z,7.00
2023-02-02T19:41:59.767Z,8.40
2023-02-02T19:44:31.302Z,5.83
2023-02-02T19:46:59.838Z,5.77
2023-02-02T19:49:32.692Z,6.17
2023-02-02T19:52:03.681Z,6.83
2023-02-02T19:54:35.145Z,5.13
2023-02-02T19:57:16.794Z,6.30
2023-02-02T19:59:49.795Z,5.10
2023-02-02T20:02:46.145Z,5.73
2023-02-02T20:05:20.628Z,6.30
2023-02-02T20:07:52.158Z,5.93
2023-02-02T20:10:22.845Z,8.07
2023-02-02T20:12:52.214Z,7.60
2023-02-02T20:15:31.993Z,6.73
2023-02-02T20:18:01.727Z,7.90
2023-02-02T20:20:37.522Z,6.53
2023-02-02T20:23:20.030Z,8.87
2023-02-02T20:25:46.947Z,9.80
2023-02-02T20:28:33.984Z,11.27
2023-02-02T20:31:04.806Z,9.53
2023-02-02T20:33:33.168Z,7.77
2023-02-02T20:36:02.447Z,7.13
2023-02-02T20:38:39.137Z,8.80
2023-02-02T20:41:06.298Z,9.93
2023-02-02T20:43:35.710Z,8.40
2023-02-02T20:46:02.854Z,7.87
2023-02-02T20:48:30.291Z,8.00
2023-02-02T20:50:57.266Z,8.17
2023-02-02T20:53:24.134Z,9.30
2023-02-02T20:55:56.646Z,8.67
2023-02-02T20:58:24.112Z,9.07
2023-02-02T21:00:52.460Z,8.53
2023-02-02T21:03:20.142Z,9.40
2023-02-02T21:05:47.321Z,9.33
2023-02-02T21:08:14.169Z,9.10
2023-02-02T21:10:41.078Z,9.00
2023-02-02T21:13:07.935Z,8.80
2023-02-02T21:15:34.786Z,8.73
2023-02-02T21:18:02.961Z,11.30
2023-02-02T21:20:29.928Z,9.27
2023-02-02T21:22:56.783Z,9.90
2023-02-02T21:25:23.664Z,8.50
2023-02-02T21:27:50.547Z,9.13
2023-02-02T21:30:18.359Z,8.47
2023-02-02T21:32:45.462Z,9.77
2023-02-02T21:35:14.976Z,10.10
2023-02-02T21:37:44.014Z,9.90
2023-02-02T21:40:19.345Z,10.93
2023-02-02T21:42:49.415Z,11.87
2023-02-02T21:45:33.469Z,10.93
2023-02-02T21:48:05.045Z,13.03
2023-02-02T21:50:39.924Z,11.70
2023-02-02T21:53:19.975Z,12.57
2023-02-02T21:55:52.791Z,11.33
2023-02-02T21:58:25.456Z,10.43
2023-02-02T22:00:54.052Z,11.77
2023-02-02T22:03:31.739Z,12.10
2023-02-02T22:06:22.782Z,9.77
2023-02-02T22:08:50.855Z,10.60
2023-02-02T22:11:24.901Z,10.30
2023-02-02T22:13:53.900Z,10.20
2023-02-02T22:16:20.929Z,10.20
2023-02-02T22:18:48.260Z,13.23
2023-02-02T22:21:20.581Z,9.13
2023-02-02T22:23:48.024Z,12.70
2023-02-02T22:26:33.112Z,8.03
2023-02-02T22:29:02.393Z,9.37
2023-02-02T22:31:29.316Z,10.27
2023-02-02T22:33:56.213Z,10.20
2023-02-02T22:36:24.450Z,9.07
2023-02-02T22:38:51.388Z,8.77
2023-02-02T22:41:18.420Z,7.43
2023-02-02T22:43:45.311Z,8.13
2023-02-02T22:46:12.192Z,9.93
2023-02-02T22:48:39.084Z,9.17
2023-02-02T22:51:06.115Z,9.30
2023-02-02T22:53:34.599Z,8.73
2023-02-02T22:56:01.458Z,10.93
2023-02-02T22:58:28.307Z,8.40
2023-02-02T23:00:55.871Z,10.93
2023-02-02T23:03:22.796Z,9.77
2023-02-02T23:05:49.675Z,10.70
2023-02-02T23:08:16.520Z,8.00
2023-02-02T23:10:44.697Z,8.53
2023-02-02T23:13:11.588Z,8.37
2023-02-02T23:15:38.571Z,10.70
2023-02-02T23:18:05.587Z,12.10
2023-02-02T23:20:32.761Z,10.07
2023-02-02T23:22:59.641Z,10.33
2023-02-02T23:25:26.537Z,9.63
2023-02-02T23:27:54.863Z,12.63
2023-02-02T23:30:22.117Z,9.53
2023-02-02T23:32:49.023Z,9.37
2023-02-02T23:35:16.093Z,9.23
2023-02-02T23:37:43.019Z,10.87
2023-02-02T23:40:11.982Z,8.10
2023-02-02T23:42:38.920Z,10.80
2023-02-02T23:45:08.529Z,8.40
2023-02-02T23:47:35.607Z,11.10
2023-02-02T23:50:06.364Z,10.23
2023-02-02T23:52:34.725Z,9.63
2023-02-02T23:55:02.732Z,10.30
2023-02-02T23:57:30.482Z,7.10
2023-02-02T23:59:57.439Z,6.63
